Grimshaw, Canada
Current Conditions -  °F | °C
As of 9:00 AM on Thursday 29 Jan 2015 (Local Time) from CYPE Reporting Station
Moderate Fog Moderate Fog  
Wind Chill: 10°   Ceiling: 400
Heat Index: 10°   Visibility: 15mi
Dew Point:   Wind: 2mph
Humidity: 92%   Direction: 240°WSW
Pressure: 30.17"   Gusts: NA
Location:  56.18°N, 117.6°W
Report Text: CYPE 291600Z 24002KT 15SM VCFG OVC004 M12/M13 A3017 RMK ST8 VIS W-N 3 SLP269
Loading
Personal Weather Stations






























Interactive Weather Map New forecast layout! Learn more

10-Day Weather Forecast

Advertisements
Track Severe Weather on mobile